sensor_id;sensor_type;location;lat;lon;timestamp;P1;durP1;ratioP1;P2;durP2;ratioP2
43990;SDS011;29654;50.784;20.604;2023-03-01T00:01:25;90.93;;;44.43;;
43990;SDS011;29654;50.784;20.604;2023-03-01T00:06:31;67.57;;;37.20;;
43990;SDS011;29654;50.784;20.604;2023-03-01T00:11:34;61.60;;;34.80;;
43990;SDS011;29654;50.784;20.604;2023-03-01T00:16:37;54.70;;;31.83;;
43990;SDS011;29654;50.784;20.604;2023-03-01T00:21:43;60.37;;;33.73;;
43990;SDS011;29654;50.784;20.604;2023-03-01T00:26:46;62.97;;;35.20;;
43990;SDS011;29654;50.784;20.604;2023-03-01T00:31:48;118.33;;;56.30;;
43990;SDS011;29654;50.784;20.604;2023-03-01T00:36:53;94.40;;;47.63;;
43990;SDS011;29654;50.784;20.604;2023-03-01T00:41:55;91.97;;;46.23;;
43990;SDS011;29654;50.784;20.604;2023-03-01T00:46:58;68.20;;;36.77;;
43990;SDS011;29654;50.784;20.604;2023-03-01T00:52:02;62.97;;;34.63;;
43990;SDS011;29654;50.784;20.604;2023-03-01T00:57:05;59.03;;;32.97;;
43990;SDS011;29654;50.784;20.604;2023-03-01T01:02:07;48.13;;;28.33;;
43990;SDS011;29654;50.784;20.604;2023-03-01T01:07:11;50.77;;;29.60;;
43990;SDS011;29654;50.784;20.604;2023-03-01T01:12:14;56.13;;;31.53;;
43990;SDS011;29654;50.784;20.604;2023-03-01T01:17:17;54.37;;;31.97;;
43990;SDS011;29654;50.784;20.604;2023-03-01T01:22:20;54.30;;;30.70;;
43990;SDS011;29654;50.784;20.604;2023-03-01T01:27:23;53.30;;;31.37;;
43990;SDS011;29654;50.784;20.604;2023-03-01T01:32:26;36.07;;;21.87;;
43990;SDS011;29654;50.784;20.604;2023-03-01T01:37:30;54.80;;;28.90;;
43990;SDS011;29654;50.784;20.604;2023-03-01T01:42:32;52.13;;;30.07;;
43990;SDS011;29654;50.784;20.604;2023-03-01T01:47:35;39.43;;;21.13;;
43990;SDS011;29654;50.784;20.604;2023-03-01T01:52:40;58.73;;;29.77;;
43990;SDS011;29654;50.784;20.604;2023-03-01T01:57:44;45.90;;;27.23;;
43990;SDS011;29654;50.784;20.604;2023-03-01T02:02:50;46.00;;;27.07;;
43990;SDS011;29654;50.784;20.604;2023-03-01T02:07:59;48.20;;;27.67;;
43990;SDS011;29654;50.784;20.604;2023-03-01T02:13:02;54.47;;;30.10;;
43990;SDS011;29654;50.784;20.604;2023-03-01T02:18:06;52.50;;;28.50;;
43990;SDS011;29654;50.784;20.604;2023-03-01T02:23:13;50.03;;;29.10;;
43990;SDS011;29654;50.784;20.604;2023-03-01T02:28:27;39.17;;;24.00;;
43990;SDS011;29654;50.784;20.604;2023-03-01T02:33:33;51.87;;;28.37;;
43990;SDS011;29654;50.784;20.604;2023-03-01T02:38:38;42.40;;;25.97;;
43990;SDS011;29654;50.784;20.604;2023-03-01T02:43:43;43.80;;;26.50;;
43990;SDS011;29654;50.784;20.604;2023-03-01T02:48:46;51.07;;;27.20;;
43990;SDS011;29654;50.784;20.604;2023-03-01T02:53:53;48.60;;;26.90;;
43990;SDS011;29654;50.784;20.604;2023-03-01T02:59:10;46.57;;;26.17;;
43990;SDS011;29654;50.784;20.604;2023-03-01T03:04:14;44.47;;;26.63;;
43990;SDS011;29654;50.784;20.604;2023-03-01T03:09:22;45.27;;;25.07;;
43990;SDS011;29654;50.784;20.604;2023-03-01T03:14:25;49.80;;;26.67;;
43990;SDS011;29654;50.784;20.604;2023-03-01T03:19:28;45.93;;;24.70;;
43990;SDS011;29654;50.784;20.604;2023-03-01T03:24:31;44.97;;;27.20;;
43990;SDS011;29654;50.784;20.604;2023-03-01T03:29:39;46.93;;;26.07;;
43990;SDS011;29654;50.784;20.604;2023-03-01T03:34:42;50.10;;;26.43;;
43990;SDS011;29654;50.784;20.604;2023-03-01T03:39:44;49.40;;;26.00;;
43990;SDS011;29654;50.784;20.604;2023-03-01T03:44:48;47.93;;;25.83;;
43990;SDS011;29654;50.784;20.604;2023-03-01T03:49:51;41.63;;;24.20;;
43990;SDS011;29654;50.784;20.604;2023-03-01T03:54:54;42.33;;;24.07;;
43990;SDS011;29654;50.784;20.604;2023-03-01T03:59:57;46.17;;;25.20;;
43990;SDS011;29654;50.784;20.604;2023-03-01T04:05:00;46.73;;;25.97;;
43990;SDS011;29654;50.784;20.604;2023-03-01T04:10:03;46.83;;;26.43;;
43990;SDS011;29654;50.784;20.604;2023-03-01T04:15:09;45.17;;;25.47;;
43990;SDS011;29654;50.784;20.604;2023-03-01T04:20:17;40.70;;;23.47;;
43990;SDS011;29654;50.784;20.604;2023-03-01T04:25:25;45.13;;;24.80;;
43990;SDS011;29654;50.784;20.604;2023-03-01T04:30:29;43.50;;;26.00;;
43990;SDS011;29654;50.784;20.604;2023-03-01T04:35:36;44.13;;;24.33;;
43990;SDS011;29654;50.784;20.604;2023-03-01T04:40:39;43.73;;;25.63;;
43990;SDS011;29654;50.784;20.604;2023-03-01T04:45:44;40.13;;;24.23;;
43990;SDS011;29654;50.784;20.604;2023-03-01T04:50:46;46.70;;;24.00;;
43990;SDS011;29654;50.784;20.604;2023-03-01T04:55:49;48.93;;;23.73;;
43990;SDS011;29654;50.784;20.604;2023-03-01T05:00:53;37.70;;;21.37;;
43990;SDS011;29654;50.784;20.604;2023-03-01T05:05:58;43.87;;;21.57;;
43990;SDS011;29654;50.784;20.604;2023-03-01T05:11:01;42.70;;;22.67;;
43990;SDS011;29654;50.784;20.604;2023-03-01T05:16:06;39.93;;;22.13;;
43990;SDS011;29654;50.784;20.604;2023-03-01T05:21:12;44.47;;;22.60;;
43990;SDS011;29654;50.784;20.604;2023-03-01T05:26:17;39.43;;;21.00;;
43990;SDS011;29654;50.784;20.604;2023-03-01T05:31:28;47.83;;;22.30;;
43990;SDS011;29654;50.784;20.604;2023-03-01T05:36:31;44.93;;;23.10;;
43990;SDS011;29654;50.784;20.604;2023-03-01T05:41:34;39.70;;;21.30;;
43990;SDS011;29654;50.784;20.604;2023-03-01T05:46:38;43.90;;;19.17;;
43990;SDS011;29654;50.784;20.604;2023-03-01T05:51:41;34.03;;;17.97;;
43990;SDS011;29654;50.784;20.604;2023-03-01T05:56:44;43.43;;;19.80;;
43990;SDS011;29654;50.784;20.604;2023-03-01T06:01:48;45.33;;;22.10;;
43990;SDS011;29654;50.784;20.604;2023-03-01T06:06:51;41.50;;;23.10;;
43990;SDS011;29654;50.784;20.604;2023-03-01T06:11:53;37.00;;;20.00;;
43990;SDS011;29654;50.784;20.604;2023-03-01T06:16:57;38.67;;;20.10;;
43990;SDS011;29654;50.784;20.604;2023-03-01T06:22:00;46.60;;;22.23;;
43990;SDS011;29654;50.784;20.604;2023-03-01T06:27:02;33.60;;;19.07;;
43990;SDS011;29654;50.784;20.604;2023-03-01T06:32:07;50.73;;;25.33;;
43990;SDS011;29654;50.784;20.604;2023-03-01T06:37:10;64.67;;;30.83;;
43990;SDS011;29654;50.784;20.604;2023-03-01T06:42:13;62.57;;;30.40;;
43990;SDS011;29654;50.784;20.604;2023-03-01T06:47:16;66.50;;;30.30;;
43990;SDS011;29654;50.784;20.604;2023-03-01T06:52:19;53.90;;;28.47;;
43990;SDS011;29654;50.784;20.604;2023-03-01T06:57:22;43.67;;;24.52;;
43990;SDS011;29654;50.784;20.604;2023-03-01T07:02:26;42.60;;;22.08;;
43990;SDS011;29654;50.784;20.604;2023-03-01T07:07:28;31.92;;;18.75;;
43990;SDS011;29654;50.784;20.604;2023-03-01T07:12:31;30.33;;;18.63;;
43990;SDS011;29654;50.784;20.604;2023-03-01T07:17:35;36.05;;;19.67;;
43990;SDS011;29654;50.784;20.604;2023-03-01T07:22:39;32.65;;;18.55;;
43990;SDS011;29654;50.784;20.604;2023-03-01T07:27:43;36.20;;;20.48;;
43990;SDS011;29654;50.784;20.604;2023-03-01T07:32:52;31.20;;;19.42;;
43990;SDS011;29654;50.784;20.604;2023-03-01T07:37:55;33.83;;;20.92;;
43990;SDS011;29654;50.784;20.604;2023-03-01T07:42:58;39.85;;;24.40;;
43990;SDS011;29654;50.784;20.604;2023-03-01T07:48:03;33.63;;;20.60;;
43990;SDS011;29654;50.784;20.604;2023-03-01T07:53:06;26.25;;;17.75;;
43990;SDS011;29654;50.784;20.604;2023-03-01T07:58:08;28.88;;;19.17;;
43990;SDS011;29654;50.784;20.604;2023-03-01T08:03:12;38.47;;;22.17;;
43990;SDS011;29654;50.784;20.604;2023-03-01T08:08:15;32.40;;;19.10;;
43990;SDS011;29654;50.784;20.604;2023-03-01T08:13:17;34.78;;;21.27;;
43990;SDS011;29654;50.784;20.604;2023-03-01T08:18:24;27.40;;;17.50;;
43990;SDS011;29654;50.784;20.604;2023-03-01T08:23:27;24.98;;;16.90;;
43990;SDS011;29654;50.784;20.604;2023-03-01T08:28:30;33.13;;;17.90;;
43990;SDS011;29654;50.784;20.604;2023-03-01T08:33:34;39.30;;;21.13;;
43990;SDS011;29654;50.784;20.604;2023-03-01T08:38:36;29.77;;;18.30;;
43990;SDS011;29654;50.784;20.604;2023-03-01T08:43:39;27.05;;;17.73;;
43990;SDS011;29654;50.784;20.604;2023-03-01T08:48:43;29.73;;;18.33;;
43990;SDS011;29654;50.784;20.604;2023-03-01T08:53:46;35.15;;;20.20;;
43990;SDS011;29654;50.784;20.604;2023-03-01T08:58:49;36.92;;;22.05;;
43990;SDS011;29654;50.784;20.604;2023-03-01T09:03:53;41.53;;;25.08;;
43990;SDS011;29654;50.784;20.604;2023-03-01T09:08:56;38.35;;;24.33;;
43990;SDS011;29654;50.784;20.604;2023-03-01T09:13:58;32.88;;;24.30;;
43990;SDS011;29654;50.784;20.604;2023-03-01T09:19:02;27.70;;;20.33;;
43990;SDS011;29654;50.784;20.604;2023-03-01T09:24:06;25.75;;;20.67;;
43990;SDS011;29654;50.784;20.604;2023-03-01T09:29:10;29.33;;;20.58;;
43990;SDS011;29654;50.784;20.604;2023-03-01T09:34:13;27.80;;;18.95;;
43990;SDS011;29654;50.784;20.604;2023-03-01T09:39:19;24.80;;;17.77;;
43990;SDS011;29654;50.784;20.604;2023-03-01T09:44:25;27.42;;;19.52;;
43990;SDS011;29654;50.784;20.604;2023-03-01T09:49:36;23.05;;;17.45;;
43990;SDS011;29654;50.784;20.604;2023-03-01T09:54:49;28.30;;;19.00;;
43990;SDS011;29654;50.784;20.604;2023-03-01T10:00:01;24.55;;;17.13;;
43990;SDS011;29654;50.784;20.604;2023-03-01T10:05:38;21.30;;;15.68;;
43990;SDS011;29654;50.784;20.604;2023-03-01T10:10:50;17.15;;;13.07;;
43990;SDS011;29654;50.784;20.604;2023-03-01T10:15:54;16.85;;;12.60;;
43990;SDS011;29654;50.784;20.604;2023-03-01T10:21:01;15.85;;;11.85;;
43990;SDS011;29654;50.784;20.604;2023-03-01T10:26:12;13.75;;;11.32;;
43990;SDS011;29654;50.784;20.604;2023-03-01T10:31:42;19.75;;;12.77;;
43990;SDS011;29654;50.784;20.604;2023-03-01T10:36:49;20.30;;;13.88;;
43990;SDS011;29654;50.784;20.604;2023-03-01T10:41:55;15.93;;;12.15;;
43990;SDS011;29654;50.784;20.604;2023-03-01T10:47:01;19.10;;;16.27;;
43990;SDS011;29654;50.784;20.604;2023-03-01T10:52:16;14.50;;;11.63;;
43990;SDS011;29654;50.784;20.604;2023-03-01T10:57:30;16.83;;;11.75;;
43990;SDS011;29654;50.784;20.604;2023-03-01T11:02:37;14.05;;;10.82;;
43990;SDS011;29654;50.784;20.604;2023-03-01T11:07:48;17.63;;;11.98;;
43990;SDS011;29654;50.784;20.604;2023-03-01T11:12:53;16.48;;;12.13;;
43990;SDS011;29654;50.784;20.604;2023-03-01T11:18:17;13.73;;;11.25;;
43990;SDS011;29654;50.784;20.604;2023-03-01T11:23:24;13.10;;;10.38;;
43990;SDS011;29654;50.784;20.604;2023-03-01T11:28:29;13.75;;;10.50;;
43990;SDS011;29654;50.784;20.604;2023-03-01T11:33:34;12.88;;;11.38;;
43990;SDS011;29654;50.784;20.604;2023-03-01T11:38:45;13.23;;;11.80;;
43990;SDS011;29654;50.784;20.604;2023-03-01T11:43:49;14.65;;;12.60;;
43990;SDS011;29654;50.784;20.604;2023-03-01T11:49:03;19.30;;;14.57;;
43990;SDS011;29654;50.784;20.604;2023-03-01T11:54:33;18.00;;;13.15;;
43990;SDS011;29654;50.784;20.604;2023-03-01T12:11:06;18.38;;;11.98;;
43990;SDS011;29654;50.784;20.604;2023-03-01T12:16:25;14.43;;;11.70;;
43990;SDS011;29654;50.784;20.604;2023-03-01T12:22:10;14.80;;;11.02;;
43990;SDS011;29654;50.784;20.604;2023-03-01T12:27:36;15.55;;;9.70;;
43990;SDS011;29654;50.784;20.604;2023-03-01T12:33:06;12.35;;;9.00;;
43990;SDS011;29654;50.784;20.604;2023-03-01T12:38:31;11.02;;;8.48;;
43990;SDS011;29654;50.784;20.604;2023-03-01T12:43:43;12.20;;;10.13;;
43990;SDS011;29654;50.784;20.604;2023-03-01T12:49:02;11.07;;;9.02;;
43990;SDS011;29654;50.784;20.604;2023-03-01T12:54:14;13.98;;;9.27;;
43990;SDS011;29654;50.784;20.604;2023-03-01T12:59:23;14.73;;;8.25;;
43990;SDS011;29654;50.784;20.604;2023-03-01T13:04:35;13.30;;;9.20;;
43990;SDS011;29654;50.784;20.604;2023-03-01T13:09:55;10.70;;;8.45;;
43990;SDS011;29654;50.784;20.604;2023-03-01T13:15:27;10.35;;;8.45;;
43990;SDS011;29654;50.784;20.604;2023-03-01T13:20:34;11.32;;;8.05;;
43990;SDS011;29654;50.784;20.604;2023-03-01T13:37:10;9.48;;;8.32;;
43990;SDS011;29654;50.784;20.604;2023-03-01T13:42:42;11.00;;;8.65;;
43990;SDS011;29654;50.784;20.604;2023-03-01T13:47:48;12.05;;;8.13;;
43990;SDS011;29654;50.784;20.604;2023-03-01T13:52:59;10.35;;;7.88;;
43990;SDS011;29654;50.784;20.604;2023-03-01T13:58:13;9.32;;;7.70;;
43990;SDS011;29654;50.784;20.604;2023-03-01T14:03:22;10.45;;;8.27;;
43990;SDS011;29654;50.784;20.604;2023-03-01T14:08:26;12.27;;;8.15;;
43990;SDS011;29654;50.784;20.604;2023-03-01T14:13:33;10.23;;;7.35;;
43990;SDS011;29654;50.784;20.604;2023-03-01T14:18:55;9.88;;;7.28;;
43990;SDS011;29654;50.784;20.604;2023-03-01T14:24:17;12.75;;;8.02;;
43990;SDS011;29654;50.784;20.604;2023-03-01T14:29:24;10.35;;;7.30;;
43990;SDS011;29654;50.784;20.604;2023-03-01T14:34:29;9.00;;;7.38;;
43990;SDS011;29654;50.784;20.604;2023-03-01T14:39:32;10.07;;;7.63;;
43990;SDS011;29654;50.784;20.604;2023-03-01T14:44:34;12.73;;;10.32;;
43990;SDS011;29654;50.784;20.604;2023-03-01T14:49:39;9.00;;;7.97;;
43990;SDS011;29654;50.784;20.604;2023-03-01T14:54:42;8.73;;;7.20;;
43990;SDS011;29654;50.784;20.604;2023-03-01T14:59:48;9.02;;;7.47;;
43990;SDS011;29654;50.784;20.604;2023-03-01T15:04:55;9.75;;;7.18;;
43990;SDS011;29654;50.784;20.604;2023-03-01T15:10:01;10.63;;;6.75;;
43990;SDS011;29654;50.784;20.604;2023-03-01T15:15:21;9.18;;;6.88;;
43990;SDS011;29654;50.784;20.604;2023-03-01T15:20:38;9.82;;;7.85;;
43990;SDS011;29654;50.784;20.604;2023-03-01T15:25:43;12.98;;;8.13;;
43990;SDS011;29654;50.784;20.604;2023-03-01T15:30:51;12.65;;;8.25;;
43990;SDS011;29654;50.784;20.604;2023-03-01T15:36:00;14.50;;;8.27;;
43990;SDS011;29654;50.784;20.604;2023-03-01T15:41:04;13.48;;;8.25;;
43990;SDS011;29654;50.784;20.604;2023-03-01T15:46:25;16.73;;;9.07;;
43990;SDS011;29654;50.784;20.604;2023-03-01T15:51:34;11.18;;;7.20;;
43990;SDS011;29654;50.784;20.604;2023-03-01T15:56:38;9.70;;;7.10;;
43990;SDS011;29654;50.784;20.604;2023-03-01T16:01:40;11.30;;;7.78;;
43990;SDS011;29654;50.784;20.604;2023-03-01T16:06:44;9.98;;;5.95;;
43990;SDS011;29654;50.784;20.604;2023-03-01T16:11:54;9.07;;;6.70;;
43990;SDS011;29654;50.784;20.604;2023-03-01T16:16:56;9.38;;;6.20;;
43990;SDS011;29654;50.784;20.604;2023-03-01T16:22:01;11.25;;;6.45;;
43990;SDS011;29654;50.784;20.604;2023-03-01T16:27:04;9.73;;;5.78;;
43990;SDS011;29654;50.784;20.604;2023-03-01T16:32:06;7.45;;;5.88;;
43990;SDS011;29654;50.784;20.604;2023-03-01T16:37:10;10.93;;;5.97;;
43990;SDS011;29654;50.784;20.604;2023-03-01T16:42:13;8.32;;;5.80;;
43990;SDS011;29654;50.784;20.604;2023-03-01T16:47:16;6.97;;;5.03;;
43990;SDS011;29654;50.784;20.604;2023-03-01T16:52:21;11.98;;;6.18;;
43990;SDS011;29654;50.784;20.604;2023-03-01T16:57:24;8.98;;;5.63;;
43990;SDS011;29654;50.784;20.604;2023-03-01T17:02:26;9.85;;;5.20;;
43990;SDS011;29654;50.784;20.604;2023-03-01T17:07:30;9.73;;;5.78;;
43990;SDS011;29654;50.784;20.604;2023-03-01T17:12:34;11.75;;;6.00;;
43990;SDS011;29654;50.784;20.604;2023-03-01T17:17:37;6.78;;;4.43;;
43990;SDS011;29654;50.784;20.604;2023-03-01T17:22:41;11.00;;;5.05;;
43990;SDS011;29654;50.784;20.604;2023-03-01T17:27:44;17.77;;;11.43;;
43990;SDS011;29654;50.784;20.604;2023-03-01T17:32:46;18.70;;;10.00;;
43990;SDS011;29654;50.784;20.604;2023-03-01T17:37:50;28.27;;;15.13;;
43990;SDS011;29654;50.784;20.604;2023-03-01T17:42:53;24.70;;;11.88;;
43990;SDS011;29654;50.784;20.604;2023-03-01T17:47:56;14.73;;;7.45;;
43990;SDS011;29654;50.784;20.604;2023-03-01T17:53:00;21.15;;;10.57;;
43990;SDS011;29654;50.784;20.604;2023-03-01T17:58:07;15.18;;;8.60;;
43990;SDS011;29654;50.784;20.604;2023-03-01T18:03:12;18.02;;;9.50;;
43990;SDS011;29654;50.784;20.604;2023-03-01T18:08:16;20.40;;;11.35;;
43990;SDS011;29654;50.784;20.604;2023-03-01T18:13:19;20.42;;;11.50;;
43990;SDS011;29654;50.784;20.604;2023-03-01T18:18:21;22.80;;;12.32;;
43990;SDS011;29654;50.784;20.604;2023-03-01T18:23:25;19.27;;;9.55;;
43990;SDS011;29654;50.784;20.604;2023-03-01T18:28:29;13.18;;;8.70;;
43990;SDS011;29654;50.784;20.604;2023-03-01T18:33:33;13.85;;;8.98;;
43990;SDS011;29654;50.784;20.604;2023-03-01T18:38:37;24.45;;;16.35;;
43990;SDS011;29654;50.784;20.604;2023-03-01T18:43:40;47.35;;;28.63;;
43990;SDS011;29654;50.784;20.604;2023-03-01T18:48:42;82.75;;;47.47;;
43990;SDS011;29654;50.784;20.604;2023-03-01T18:53:49;77.35;;;44.35;;
43990;SDS011;29654;50.784;20.604;2023-03-01T18:58:52;68.82;;;40.80;;
43990;SDS011;29654;50.784;20.604;2023-03-01T19:03:55;54.53;;;30.27;;
43990;SDS011;29654;50.784;20.604;2023-03-01T19:09:00;36.00;;;23.70;;
43990;SDS011;29654;50.784;20.604;2023-03-01T19:14:03;28.88;;;17.95;;
43990;SDS011;29654;50.784;20.604;2023-03-01T19:19:06;27.38;;;15.85;;
43990;SDS011;29654;50.784;20.604;2023-03-01T19:24:10;29.90;;;15.60;;
43990;SDS011;29654;50.784;20.604;2023-03-01T19:29:13;28.45;;;16.15;;
43990;SDS011;29654;50.784;20.604;2023-03-01T19:34:16;27.58;;;15.52;;
43990;SDS011;29654;50.784;20.604;2023-03-01T19:39:20;26.05;;;16.38;;
43990;SDS011;29654;50.784;20.604;2023-03-01T19:44:22;54.47;;;31.48;;
43990;SDS011;29654;50.784;20.604;2023-03-01T19:49:25;80.82;;;41.88;;
43990;SDS011;29654;50.784;20.604;2023-03-01T19:54:30;54.00;;;29.50;;
43990;SDS011;29654;50.784;20.604;2023-03-01T19:59:33;59.70;;;30.92;;
43990;SDS011;29654;50.784;20.604;2023-03-01T20:04:36;52.22;;;29.70;;
43990;SDS011;29654;50.784;20.604;2023-03-01T20:09:40;50.53;;;27.60;;
43990;SDS011;29654;50.784;20.604;2023-03-01T20:14:43;44.05;;;25.13;;
43990;SDS011;29654;50.784;20.604;2023-03-01T20:19:48;44.00;;;23.63;;
43990;SDS011;29654;50.784;20.604;2023-03-01T20:24:52;30.80;;;18.45;;
43990;SDS011;29654;50.784;20.604;2023-03-01T20:29:55;35.40;;;20.58;;
43990;SDS011;29654;50.784;20.604;2023-03-01T20:34:57;39.28;;;22.67;;
43990;SDS011;29654;50.784;20.604;2023-03-01T20:40:01;51.85;;;28.30;;
43990;SDS011;29654;50.784;20.604;2023-03-01T20:45:05;47.38;;;24.55;;
43990;SDS011;29654;50.784;20.604;2023-03-01T20:50:09;42.45;;;24.35;;
43990;SDS011;29654;50.784;20.604;2023-03-01T20:55:14;46.20;;;25.20;;
43990;SDS011;29654;50.784;20.604;2023-03-01T21:00:17;53.38;;;30.65;;
43990;SDS011;29654;50.784;20.604;2023-03-01T21:05:20;60.17;;;34.28;;
43990;SDS011;29654;50.784;20.604;2023-03-01T21:10:24;48.70;;;28.73;;
43990;SDS011;29654;50.784;20.604;2023-03-01T21:15:27;50.90;;;26.98;;
43990;SDS011;29654;50.784;20.604;2023-03-01T21:20:29;53.53;;;27.67;;
43990;SDS011;29654;50.784;20.604;2023-03-01T21:25:33;64.55;;;35.25;;
43990;SDS011;29654;50.784;20.604;2023-03-01T21:30:36;62.65;;;33.30;;
43990;SDS011;29654;50.784;20.604;2023-03-01T21:35:38;72.90;;;37.35;;
43990;SDS011;29654;50.784;20.604;2023-03-01T21:40:42;72.43;;;35.90;;
43990;SDS011;29654;50.784;20.604;2023-03-01T21:45:45;75.15;;;39.83;;
43990;SDS011;29654;50.784;20.604;2023-03-01T21:50:53;66.25;;;36.55;;
43990;SDS011;29654;50.784;20.604;2023-03-01T21:55:57;81.75;;;39.88;;
43990;SDS011;29654;50.784;20.604;2023-03-01T22:01:06;74.07;;;38.53;;
43990;SDS011;29654;50.784;20.604;2023-03-01T22:06:11;58.25;;;32.90;;
43990;SDS011;29654;50.784;20.604;2023-03-01T22:11:20;73.78;;;36.95;;
43990;SDS011;29654;50.784;20.604;2023-03-01T22:16:24;73.80;;;39.03;;
43990;SDS011;29654;50.784;20.604;2023-03-01T22:21:28;106.43;;;52.13;;
43990;SDS011;29654;50.784;20.604;2023-03-01T22:26:33;79.97;;;42.25;;
43990;SDS011;29654;50.784;20.604;2023-03-01T22:31:39;72.68;;;38.67;;
43990;SDS011;29654;50.784;20.604;2023-03-01T22:36:42;64.78;;;37.22;;
43990;SDS011;29654;50.784;20.604;2023-03-01T22:41:47;72.53;;;36.00;;
43990;SDS011;29654;50.784;20.604;2023-03-01T22:46:50;68.40;;;35.17;;
43990;SDS011;29654;50.784;20.604;2023-03-01T22:51:53;62.35;;;33.67;;
43990;SDS011;29654;50.784;20.604;2023-03-01T22:56:57;64.88;;;34.40;;
43990;SDS011;29654;50.784;20.604;2023-03-01T23:01:59;50.97;;;30.52;;
43990;SDS011;29654;50.784;20.604;2023-03-01T23:07:02;61.05;;;28.23;;
43990;SDS011;29654;50.784;20.604;2023-03-01T23:12:06;59.88;;;29.60;;
43990;SDS011;29654;50.784;20.604;2023-03-01T23:17:10;54.88;;;27.15;;
43990;SDS011;29654;50.784;20.604;2023-03-01T23:22:13;50.90;;;27.23;;
43990;SDS011;29654;50.784;20.604;2023-03-01T23:27:17;42.30;;;24.07;;
43990;SDS011;29654;50.784;20.604;2023-03-01T23:32:20;43.30;;;22.60;;
43990;SDS011;29654;50.784;20.604;2023-03-01T23:37:27;44.67;;;22.77;;
43990;SDS011;29654;50.784;20.604;2023-03-01T23:42:32;49.00;;;28.33;;
43990;SDS011;29654;50.784;20.604;2023-03-01T23:47:35;67.00;;;35.00;;
43990;SDS011;29654;50.784;20.604;2023-03-01T23:52:37;59.00;;;32.30;;
43990;SDS011;29654;50.784;20.604;2023-03-01T23:57:42;52.95;;;29.15;;
